Time;durP1;ratioP1;P1;durP2;ratioP2;P2;SDS_P1;SDS_P2;PMS_P1;PMS_P2;Temp;Humidity;BMP_temperature;BMP_pressure;BME280_temperature;BME280_humidity;BME280_pressure;Samples;Min_cycle;Max_cycle;Signal;HPM_P1;HPM_P2
2023/04/19 00:01:27;;;;;;;5.65;5.13;;;11.30;99.90;;;;;;5111672;28;20024;-65
2023/04/19 00:03:53;;;;;;;7.10;5.88;;;11.30;99.90;;;;;;5112040;28;20488;-66
2023/04/19 00:06:19;;;;;;;5.75;5.00;;;11.30;99.90;;;;;;5112428;28;20036;-66
2023/04/19 00:08:45;;;;;;;4.80;4.40;;;11.20;99.90;;;;;;5111856;28;20076;-66
2023/04/19 00:11:11;;;;;;;4.70;4.20;;;11.20;99.90;;;;;;5111726;28;20123;-66
2023/04/19 00:13:36;;;;;;;4.60;4.20;;;11.10;99.90;;;;;;5112157;28;20144;-66
2023/04/19 00:16:03;;;;;;;4.60;4.20;;;11.10;99.90;;;;;;5111466;28;20097;-65
2023/04/19 00:18:29;;;;;;;4.68;4.28;;;10.90;99.90;;;;;;5111963;28;20027;-65
2023/04/19 00:20:55;;;;;;;5.00;4.60;;;10.90;99.90;;;;;;5111849;28;20038;-66
2023/04/19 00:23:21;;;;;;;5.25;4.40;;;10.80;99.90;;;;;;5112254;28;20098;-65
2023/04/19 00:25:48;;;;;;;5.32;4.70;;;10.80;99.90;;;;;;5111738;28;20032;-64
2023/04/19 00:28:14;;;;;;;4.63;4.22;;;10.90;99.90;;;;;;5111636;28;20254;-66
2023/04/19 00:30:40;;;;;;;4.60;4.20;;;10.90;99.90;;;;;;5111632;28;20115;-65
2023/04/19 00:33:11;;;;;;;4.88;4.40;;;10.90;99.90;;;;;;5111718;28;20034;-66
2023/04/19 00:35:38;;;;;;;4.00;3.70;;;10.80;99.90;;;;;;5093403;28;20416;-66
2023/04/19 00:38:04;;;;;;;4.57;4.15;;;10.90;99.90;;;;;;5111082;28;20030;-66
2023/04/19 00:40:31;;;;;;;5.10;4.15;;;10.80;99.90;;;;;;5111798;28;20103;-66
2023/04/19 00:42:57;;;;;;;4.70;4.30;;;10.70;99.90;;;;;;5111704;28;20035;-67
2023/04/19 00:45:22;;;;;;;4.78;4.38;;;10.60;99.90;;;;;;5111415;28;20027;-66
2023/04/19 00:47:48;;;;;;;4.75;4.35;;;10.70;99.90;;;;;;5111531;28;20055;-66
2023/04/19 00:50:14;;;;;;;4.45;4.00;;;10.60;99.90;;;;;;5111544;28;20106;-66
2023/04/19 00:52:40;;;;;;;4.70;4.30;;;10.70;99.90;;;;;;5111533;28;20016;-66
2023/04/19 00:55:07;;;;;;;4.47;4.07;;;10.60;99.90;;;;;;5111769;28;20046;-66
2023/04/19 00:57:32;;;;;;;5.07;4.57;;;10.50;99.90;;;;;;5111434;28;20016;-66
2023/04/19 00:59:58;;;;;;;4.88;4.47;;;10.60;99.90;;;;;;5111006;28;20395;-67
2023/04/19 01:02:24;;;;;;;6.05;4.20;;;10.60;99.90;;;;;;5111629;28;20084;-66
2023/04/19 01:04:50;;;;;;;5.15;4.65;;;10.50;99.90;;;;;;5111299;28;20043;-66
2023/04/19 01:07:18;;;;;;;4.50;4.10;;;10.50;99.90;;;;;;5111502;28;20076;-66
2023/04/19 01:09:44;;;;;;;5.82;4.90;;;10.40;99.90;;;;;;5111496;28;20116;-66
2023/04/19 01:12:10;;;;;;;5.40;4.90;;;10.60;99.90;;;;;;5092876;28;20109;-66
2023/04/19 01:14:36;;;;;;;5.30;4.80;;;10.40;99.90;;;;;;5111012;28;20617;-66
2023/04/19 01:17:01;;;;;;;4.88;4.47;;;10.40;99.90;;;;;;5111254;28;20535;-66
2023/04/19 01:19:27;;;;;;;4.63;4.25;;;10.30;99.90;;;;;;5111362;28;20051;-66
2023/04/19 01:21:55;;;;;;;5.20;4.65;;;10.30;99.90;;;;;;5111416;28;20019;-66
2023/04/19 01:24:20;;;;;;;6.32;4.88;;;10.20;99.90;;;;;;5111261;28;20063;-66
2023/04/19 01:26:46;;;;;;;7.20;4.82;;;10.20;99.90;;;;;;5093256;28;20108;-66
2023/04/19 01:29:12;;;;;;;5.95;5.00;;;10.20;99.90;;;;;;5110864;28;20032;-66
2023/04/19 01:31:38;;;;;;;5.10;4.70;;;10.00;99.90;;;;;;5111251;28;20027;-66
2023/04/19 01:34:04;;;;;;;5.57;4.85;;;9.90;99.90;;;;;;5111078;28;20028;-67
2023/04/19 01:36:30;;;;;;;5.00;4.50;;;9.80;99.90;;;;;;5111537;28;20024;-65
2023/04/19 01:38:56;;;;;;;5.63;4.72;;;9.80;99.90;;;;;;5111000;28;20111;-66
2023/04/19 01:41:25;;;;;;;5.65;5.00;;;9.70;99.90;;;;;;5110888;28;20499;-66
2023/04/19 01:43:51;;;;;;;5.28;4.78;;;9.70;99.90;;;;;;5110778;28;20019;-66
2023/04/19 01:46:17;;;;;;;5.43;4.93;;;9.60;99.90;;;;;;5092669;28;20484;-66
2023/04/19 01:48:43;;;;;;;5.68;4.90;;;9.60;99.90;;;;;;5111122;28;20039;-66
2023/04/19 01:51:08;;;;;;;5.45;4.95;;;9.70;99.90;;;;;;5114837;28;20058;-66
2023/04/19 01:53:34;;;;;;;5.57;5.03;;;9.70;99.90;;;;;;5114683;28;20042;-66
2023/04/19 01:56:00;;;;;;;5.57;5.07;;;9.60;99.90;;;;;;5114539;28;20054;-66
2023/04/19 01:58:25;;;;;;;5.47;4.90;;;9.60;99.90;;;;;;5114177;28;20024;-66
2023/04/19 02:00:51;;;;;;;6.22;5.10;;;9.50;99.90;;;;;;5096166;28;20031;-66
2023/04/19 02:03:17;;;;;;;5.63;5.10;;;9.50;99.90;;;;;;5114573;28;20046;-66
2023/04/19 02:05:42;;;;;;;5.35;4.95;;;9.40;99.90;;;;;;5114312;28;20031;-66
2023/04/19 02:08:08;;;;;;;5.78;5.20;;;9.40;99.90;;;;;;5114046;28;20055;-65
2023/04/19 02:10:34;;;;;;;5.60;5.10;;;9.30;99.90;;;;;;5114767;28;20121;-66
2023/04/19 02:13:00;;;;;;;6.88;5.22;;;9.30;99.90;;;;;;5113518;28;20054;-65
2023/04/19 02:15:26;;;;;;;6.28;5.10;;;9.20;99.90;;;;;;5114179;28;20031;-66
2023/04/19 02:17:51;;;;;;;5.60;5.10;;;9.30;99.90;;;;;;5114518;28;20042;-66
2023/04/19 02:20:17;;;;;;;5.40;5.00;;;9.20;99.90;;;;;;5113746;28;20122;-67
2023/04/19 02:22:43;;;;;;;5.35;4.82;;;9.10;99.90;;;;;;5114088;28;20066;-66
2023/04/19 02:25:09;;;;;;;6.22;5.70;;;9.10;99.90;;;;;;5114190;28;20032;-65
2023/04/19 02:27:34;;;;;;;6.20;5.60;;;9.00;99.90;;;;;;5113603;28;20024;-66
2023/04/19 02:30:00;;;;;;;6.22;5.05;;;9.00;99.90;;;;;;5114019;28;20031;-66
2023/04/19 02:32:26;;;;;;;5.75;5.25;;;9.00;99.90;;;;;;5114150;28;20666;-66
2023/04/19 02:34:52;;;;;;;8.13;5.40;;;9.00;99.90;;;;;;5113794;28;20058;-67
2023/04/19 02:37:17;;;;;;;6.88;5.20;;;8.90;99.90;;;;;;5113807;28;20042;-66
2023/04/19 02:39:44;;;;;;;6.10;5.60;;;8.80;99.90;;;;;;5113767;28;20028;-66
2023/04/19 02:42:10;;;;;;;7.40;5.30;;;8.70;99.90;;;;;;5113292;28;20035;-66
2023/04/19 02:44:36;;;;;;;8.18;5.50;;;8.80;99.90;;;;;;5113690;28;20099;-66
2023/04/19 02:47:01;;;;;;;5.57;4.97;;;8.70;99.90;;;;;;5114062;28;20484;-66
2023/04/19 02:49:33;;;;;;;6.40;5.80;;;8.80;99.90;;;;;;5113679;28;20110;-66
2023/04/19 02:51:59;;;;;;;5.72;5.20;;;8.70;99.90;;;;;;5113797;28;20059;-66
2023/04/19 02:54:24;;;;;;;6.35;5.63;;;8.70;99.90;;;;;;5113135;28;20067;-66
2023/04/19 02:56:50;;;;;;;6.25;5.70;;;8.60;99.90;;;;;;5113334;28;20054;-66
2023/04/19 02:59:16;;;;;;;6.30;5.70;;;8.60;99.90;;;;;;5113754;28;20028;-66
2023/04/19 03:01:41;;;;;;;6.32;5.68;;;8.50;99.90;;;;;;5112914;28;20024;-65
2023/04/19 03:04:07;;;;;;;6.10;5.50;;;8.40;99.90;;;;;;5113332;28;20026;-65
2023/04/19 03:06:33;;;;;;;6.47;5.75;;;8.40;99.90;;;;;;5113246;28;20024;-64
2023/04/19 03:08:58;;;;;;;6.10;5.45;;;8.40;99.90;;;;;;5112666;28;20034;-65
2023/04/19 03:11:24;;;;;;;6.28;5.72;;;8.40;99.90;;;;;;5113338;28;20036;-64
2023/04/19 03:13:49;;;;;;;6.13;5.57;;;8.30;99.90;;;;;;5113304;28;20057;-65
2023/04/19 03:16:15;;;;;;;6.05;5.47;;;8.40;99.90;;;;;;5112910;28;20153;-66
2023/04/19 03:18:41;;;;;;;6.47;5.90;;;8.30;99.90;;;;;;5112989;28;20027;-65
2023/04/19 03:21:08;;;;;;;6.50;5.90;;;8.20;99.90;;;;;;5112967;28;20030;-65
2023/04/19 03:23:34;;;;;;;6.22;5.70;;;8.20;99.90;;;;;;5112512;28;20031;-63
2023/04/19 03:25:59;;;;;;;6.38;5.88;;;8.10;99.90;;;;;;5113097;28;20107;-65
2023/04/19 03:28:25;;;;;;;5.95;5.45;;;8.00;99.90;;;;;;5112753;28;20098;-65
2023/04/19 03:30:51;;;;;;;7.00;6.22;;;8.00;99.90;;;;;;5113112;28;20020;-66
2023/04/19 03:33:16;;;;;;;6.90;6.10;;;8.00;99.90;;;;;;5112801;28;20479;-65
2023/04/19 03:35:43;;;;;;;6.68;5.95;;;8.00;99.90;;;;;;5112644;28;20035;-65
2023/04/19 03:38:09;;;;;;;6.10;5.60;;;7.90;99.90;;;;;;5112383;28;20103;-65
2023/04/19 03:40:36;;;;;;;6.47;5.80;;;8.00;99.90;;;;;;5112566;28;20107;-65
2023/04/19 03:43:02;;;;;;;6.60;6.00;;;8.00;99.90;;;;;;5112744;28;20031;-65
2023/04/19 03:45:28;;;;;;;7.03;6.30;;;7.90;99.90;;;;;;5112602;28;20392;-65
2023/04/19 03:47:54;;;;;;;7.22;6.53;;;7.90;99.90;;;;;;5094289;28;20020;-65
2023/04/19 03:50:19;;;;;;;7.72;6.97;;;7.90;99.90;;;;;;5112314;28;20096;-65
2023/04/19 03:52:45;;;;;;;7.13;6.53;;;7.90;99.90;;;;;;5111880;28;20427;-65
2023/04/19 03:55:11;;;;;;;7.88;7.18;;;7.80;99.90;;;;;;5112333;28;20441;-65
2023/04/19 03:57:37;;;;;;;8.10;7.40;;;7.80;99.90;;;;;;5093866;28;20407;-66
2023/04/19 04:00:07;;;;;;;7.75;6.97;;;7.70;99.90;;;;;;5094069;28;20028;-65
2023/04/19 04:02:35;;;;;;;7.60;6.90;;;7.70;99.90;;;;;;5112190;28;20047;-65
2023/04/19 04:05:01;;;;;;;8.15;7.43;;;7.70;99.90;;;;;;5111839;28;20028;-65
2023/04/19 04:07:26;;;;;;;8.32;7.32;;;7.70;99.90;;;;;;5111696;28;20046;-64
2023/04/19 04:09:52;;;;;;;8.15;7.20;;;7.60;99.90;;;;;;5112146;28;20028;-66
2023/04/19 04:12:18;;;;;;;9.35;7.68;;;7.60;99.90;;;;;;5111317;28;20043;-65
2023/04/19 04:14:43;;;;;;;7.95;7.30;;;7.70;99.90;;;;;;5112010;28;20040;-65
2023/04/19 04:17:09;;;;;;;8.07;7.25;;;7.70;99.90;;;;;;5112036;28;20097;-65
2023/04/19 04:19:35;;;;;;;9.13;8.23;;;7.70;99.90;;;;;;5111817;28;20062;-65
2023/04/19 04:22:00;;;;;;;8.70;7.70;;;7.70;99.90;;;;;;5111338;28;20027;-65
2023/04/19 04:24:26;;;;;;;8.45;7.60;;;7.70;99.90;;;;;;5112178;28;20031;-65
2023/04/19 04:26:53;;;;;;;8.60;7.80;;;7.70;99.90;;;;;;5111765;28;20035;-65
2023/04/19 04:29:18;;;;;;;8.68;7.90;;;7.80;99.90;;;;;;5111758;28;20073;-65
2023/04/19 04:31:44;;;;;;;8.95;8.05;;;7.80;99.90;;;;;;5111683;28;20032;-65
2023/04/19 04:34:10;;;;;;;8.90;8.07;;;7.90;99.90;;;;;;5111774;28;20511;-65
2023/04/19 04:36:36;;;;;;;8.63;7.82;;;7.90;99.90;;;;;;5111625;28;20020;-65
2023/04/19 04:39:03;;;;;;;9.10;8.20;;;7.90;99.90;;;;;;5111615;28;20034;-65
2023/04/19 04:41:30;;;;;;;8.50;7.80;;;7.90;99.90;;;;;;5111636;28;20403;-65
2023/04/19 04:44:00;;;;;;;9.10;8.20;;;7.90;99.90;;;;;;5111653;28;20381;-65
2023/04/19 04:46:25;;;;;;;9.00;8.20;;;7.90;99.90;;;;;;5112130;28;20058;-65
2023/04/19 04:48:52;;;;;;;8.85;8.15;;;8.00;99.90;;;;;;5111444;28;20507;-66
2023/04/19 04:51:18;;;;;;;8.88;8.07;;;7.90;99.90;;;;;;5111219;28;20028;-65
2023/04/19 04:53:44;;;;;;;8.93;7.97;;;8.00;99.90;;;;;;5111496;28;20626;-65
2023/04/19 04:56:10;;;;;;;9.02;8.10;;;8.00;99.90;;;;;;5111544;28;20041;-65
2023/04/19 04:58:36;;;;;;;9.77;8.77;;;7.90;99.90;;;;;;5111970;28;20020;-65
2023/04/19 05:01:01;;;;;;;8.90;8.00;;;8.00;99.90;;;;;;5111377;28;20059;-65
2023/04/19 05:03:27;;;;;;;9.88;8.25;;;8.00;99.90;;;;;;5111438;28;20433;-65
2023/04/19 05:05:53;;;;;;;9.20;8.30;;;8.00;99.90;;;;;;5111217;28;20063;-65
2023/04/19 05:08:19;;;;;;;9.73;8.68;;;8.00;99.90;;;;;;5111496;28;20047;-65
2023/04/19 05:10:44;;;;;;;9.57;8.68;;;7.90;99.90;;;;;;5111428;28;20126;-65
2023/04/19 05:13:10;;;;;;;9.02;8.13;;;7.90;99.90;;;;;;5111268;28;20535;-65
2023/04/19 05:15:36;;;;;;;8.65;7.72;;;8.00;99.90;;;;;;5111216;28;20035;-65
2023/04/19 05:18:02;;;;;;;8.70;7.90;;;8.10;99.90;;;;;;5111130;28;20549;-65
2023/04/19 05:20:28;;;;;;;9.68;8.77;;;8.10;99.90;;;;;;5111163;28;20403;-65
2023/04/19 05:22:58;;;;;;;12.05;8.20;;;8.00;99.90;;;;;;5111915;28;20076;-64
2023/04/19 05:25:24;;;;;;;9.02;8.10;;;7.90;99.90;;;;;;5115210;28;20026;-65
2023/04/19 05:27:49;;;;;;;8.30;7.60;;;8.00;99.90;;;;;;5115115;28;20106;-66
2023/04/19 05:30:15;;;;;;;8.52;7.38;;;8.20;99.90;;;;;;5115166;28;20058;-65
2023/04/19 05:32:41;;;;;;;8.82;7.50;;;8.40;99.90;;;;;;5114935;28;20023;-65
2023/04/19 05:35:07;;;;;;;8.20;7.40;;;8.40;99.90;;;;;;5114591;28;20031;-65
2023/04/19 05:37:33;;;;;;;8.10;6.85;;;8.40;99.90;;;;;;5115101;28;20024;-64
2023/04/19 05:39:58;;;;;;;7.90;7.13;;;8.50;99.90;;;;;;5114891;28;20118;-65
2023/04/19 05:42:24;;;;;;;7.75;7.05;;;8.50;99.90;;;;;;5115166;28;20489;-65
2023/04/19 05:44:50;;;;;;;8.45;7.65;;;8.60;99.90;;;;;;5114841;28;20482;-66
2023/04/19 05:47:16;;;;;;;8.90;7.60;;;8.50;99.90;;;;;;5114668;28;20072;-65
2023/04/19 05:49:42;;;;;;;8.15;7.35;;;8.60;99.90;;;;;;5114515;28;20055;-64
2023/04/19 05:52:07;;;;;;;8.52;7.53;;;8.60;99.90;;;;;;5114972;28;20047;-65
2023/04/19 05:54:34;;;;;;;9.18;8.10;;;8.50;99.90;;;;;;5114437;28;20471;-65
2023/04/19 05:57:01;;;;;;;9.57;8.27;;;8.50;99.90;;;;;;5114696;28;20100;-65
2023/04/19 05:59:27;;;;;;;9.68;7.63;;;8.50;99.90;;;;;;5114775;28;20031;-65
2023/04/19 06:01:54;;;;;;;8.48;7.68;;;8.60;99.90;;;;;;5114512;28;20484;-65
2023/04/19 06:04:20;;;;;;;9.85;8.85;;;8.60;99.90;;;;;;5114156;28;20500;-63
2023/04/19 06:06:46;;;;;;;9.27;8.48;;;8.60;99.90;;;;;;5114774;28;20118;-64
2023/04/19 06:09:13;;;;;;;9.55;8.55;;;8.70;99.90;;;;;;5114390;28;20024;-65
2023/04/19 06:11:40;;;;;;;13.10;8.95;;;8.70;99.90;;;;;;5113987;28;20043;-65
2023/04/19 06:14:06;;;;;;;12.23;9.05;;;8.90;99.90;;;;;;5114204;28;20039;-63
2023/04/19 06:16:31;;;;;;;11.18;10.00;;;8.90;99.90;;;;;;5114463;28;20030;-64
2023/04/19 06:18:57;;;;;;;12.07;10.50;;;9.00;99.90;;;;;;5113636;28;20069;-64
2023/04/19 06:21:23;;;;;;;18.15;11.35;;;9.20;99.90;;;;;;5114148;28;20028;-64
2023/04/19 06:23:48;;;;;;;21.33;12.02;;;9.20;99.90;;;;;;5095829;28;20026;-64
2023/04/19 06:26:14;;;;;;;23.08;13.50;;;9.30;99.90;;;;;;5113975;28;20031;-63
2023/04/19 06:28:39;;;;;;;17.25;12.82;;;9.30;99.90;;;;;;5113556;28;20022;-63
2023/04/19 06:31:05;;;;;;;16.92;12.75;;;9.40;99.90;;;;;;5113357;28;20481;-62
2023/04/19 06:33:31;;;;;;;17.02;12.25;;;9.50;99.90;;;;;;5113499;28;20507;-63
2023/04/19 06:35:57;;;;;;;15.27;12.48;;;9.60;99.90;;;;;;5113062;28;20039;-63
2023/04/19 06:38:22;;;;;;;15.45;11.93;;;9.80;99.90;;;;;;5095295;28;20380;-64
2023/04/19 06:40:48;;;;;;;14.00;11.43;;;9.90;99.90;;;;;;5113544;28;20028;-64
2023/04/19 06:43:14;;;;;;;12.85;10.43;;;10.10;99.90;;;;;;5112656;28;20481;-65
2023/04/19 06:45:39;;;;;;;12.38;9.95;;;10.20;99.90;;;;;;5112634;28;20368;-65
2023/04/19 06:48:05;;;;;;;10.85;9.43;;;10.40;99.90;;;;;;5112838;28;20031;-65
2023/04/19 06:50:31;;;;;;;9.60;8.60;;;10.60;99.90;;;;;;5113473;28;20093;-65
2023/04/19 06:52:56;;;;;;;9.95;8.73;;;10.60;99.90;;;;;;5113416;28;20028;-63
2023/04/19 06:55:22;;;;;;;11.15;8.63;;;10.70;99.90;;;;;;5112626;28;20365;-63
2023/04/19 06:57:48;;;;;;;11.60;7.72;;;10.70;99.90;;;;;;5112754;28;20376;-64
2023/04/19 07:00:14;;;;;;;9.13;7.40;;;10.90;99.90;;;;;;5112846;28;20024;-66
2023/04/19 07:02:39;;;;;;;7.40;6.70;;;10.90;99.90;;;;;;5112744;28;20035;-65
2023/04/19 07:05:06;;;;;;;7.45;6.63;;;11.00;99.90;;;;;;5112530;28;20427;-65
2023/04/19 07:07:32;;;;;;;7.03;6.43;;;11.10;99.90;;;;;;5112865;28;20051;-66
2023/04/19 07:09:58;;;;;;;7.20;6.55;;;11.10;99.90;;;;;;5112403;28;20078;-65
2023/04/19 07:12:23;;;;;;;8.30;6.28;;;11.10;99.90;;;;;;5112340;28;20078;-66
2023/04/19 07:14:55;;;;;;;6.53;5.75;;;11.30;99.90;;;;;;5112830;28;20038;-66
2023/04/19 07:17:21;;;;;;;5.47;4.97;;;11.40;99.90;;;;;;5112677;28;20020;-65
2023/04/19 07:19:47;;;;;;;5.65;5.13;;;11.50;99.90;;;;;;5112955;28;20534;-65
2023/04/19 07:22:13;;;;;;;5.57;4.72;;;11.50;99.90;;;;;;5112683;28;20076;-66
2023/04/19 07:24:40;;;;;;;6.55;4.80;;;11.60;99.90;;;;;;5112939;28;20483;-65
2023/04/19 07:27:06;;;;;;;5.28;4.70;;;11.70;99.90;;;;;;5112821;28;20078;-66
2023/04/19 07:29:36;;;;;;;6.63;4.60;;;11.80;99.90;;;;;;5113032;28;20039;-66
2023/04/19 07:32:02;;;;;;;5.07;4.45;;;11.90;99.90;;;;;;5112287;28;20102;-65
2023/04/19 07:34:27;;;;;;;4.78;4.30;;;12.10;99.90;;;;;;5112486;28;20496;-66
2023/04/19 07:36:53;;;;;;;5.13;4.10;;;12.10;99.90;;;;;;5112887;28;20051;-66
2023/04/19 07:39:19;;;;;;;4.82;4.00;;;12.20;99.90;;;;;;5112775;28;20036;-66
2023/04/19 07:41:45;;;;;;;5.97;4.22;;;12.30;99.90;;;;;;5112432;28;20039;-66
2023/04/19 07:44:12;;;;;;;16.40;6.13;;;12.40;99.90;;;;;;5112245;28;20031;-66
2023/04/19 07:46:38;;;;;;;29.50;8.48;;;12.50;99.90;;;;;;5111992;28;20066;-66
2023/04/19 07:49:04;;;;;;;14.48;6.28;;;12.60;99.90;;;;;;5112720;28;20035;-66
2023/04/19 07:51:30;;;;;;;11.82;5.50;;;12.70;99.90;;;;;;5112328;28;20031;-66
2023/04/19 07:53:56;;;;;;;8.25;4.80;;;12.70;99.90;;;;;;5112312;28;20034;-67
2023/04/19 07:56:22;;;;;;;7.70;4.38;;;12.80;99.90;;;;;;5112210;28;20412;-65
2023/04/19 07:58:48;;;;;;;5.53;4.25;;;12.90;99.90;;;;;;5112248;28;20023;-66
2023/04/19 08:01:13;;;;;;;5.18;4.30;;;13.00;99.90;;;;;;5111800;28;20034;-66
2023/04/19 08:03:40;;;;;;;5.00;3.88;;;13.10;99.90;;;;;;5112437;28;20028;-66
2023/04/19 08:06:08;;;;;;;6.57;4.18;;;13.20;99.90;;;;;;5111959;28;20405;-67
2023/04/19 08:08:35;;;;;;;6.45;4.10;;;13.30;99.90;;;;;;5111841;28;20100;-67
2023/04/19 08:11:02;;;;;;;5.68;4.18;;;13.40;99.90;;;;;;5111950;28;20038;-67
2023/04/19 08:13:28;;;;;;;5.43;3.88;;;13.60;99.90;;;;;;5111602;28;20092;-67
2023/04/19 08:15:55;;;;;;;8.93;4.07;;;13.60;99.90;;;;;;5111857;28;20066;-65
2023/04/19 08:18:21;;;;;;;5.78;3.97;;;13.70;99.90;;;;;;5112224;28;20034;-66
2023/04/19 08:20:47;;;;;;;5.50;4.10;;;13.70;99.90;;;;;;5111760;28;20472;-67
2023/04/19 08:23:13;;;;;;;5.22;3.72;;;13.80;99.90;;;;;;5093616;28;20026;-66
2023/04/19 08:25:39;;;;;;;4.57;3.92;;;13.90;99.90;;;;;;5111670;28;20511;-66
2023/04/19 08:28:05;;;;;;;4.43;3.75;;;13.90;99.90;;;;;;5111374;28;20023;-66
2023/04/19 08:30:31;;;;;;;4.68;3.60;;;14.00;99.90;;;;;;5111717;28;20028;-66
2023/04/19 08:32:57;;;;;;;6.15;3.90;;;14.10;99.90;;;;;;5111734;28;20042;-66
2023/04/19 08:35:24;;;;;;;4.30;3.70;;;14.20;99.90;;;;;;5111645;28;20488;-66
2023/04/19 08:37:50;;;;;;;3.88;3.47;;;14.20;99.90;;;;;;5111753;28;20028;-66
2023/04/19 08:40:15;;;;;;;5.78;3.67;;;14.40;99.90;;;;;;5111546;28;20499;-66
2023/04/19 08:42:42;;;;;;;3.92;3.63;;;14.50;99.90;;;;;;5111588;28;20032;-66
2023/04/19 08:45:10;;;;;;;3.65;3.35;;;14.50;99.90;;;;;;5111468;28;20023;-67
2023/04/19 08:47:36;;;;;;;4.45;3.42;;;14.60;99.90;;;;;;5111588;28;20149;-66
2023/04/19 08:50:07;;;;;;;5.82;3.30;;;14.60;99.90;;;;;;5111576;28;20490;-67
2023/04/19 08:52:34;;;;;;;4.43;3.53;;;14.80;99.90;;;;;;5111774;28;20031;-64
2023/04/19 08:55:04;;;;;;;6.65;3.20;;;15.00;99.90;;;;;;5111598;28;20035;-66
2023/04/19 08:57:34;;;;;;;6.93;3.65;;;15.10;99.90;;;;;;5111129;28;20075;-66
2023/04/19 09:00:01;;;;;;;3.80;3.10;;;15.00;99.90;;;;;;5115575;28;20392;-65
2023/04/19 09:02:27;;;;;;;3.40;3.10;;;15.20;99.90;;;;;;5115657;28;20011;-65
2023/04/19 09:04:52;;;;;;;3.50;3.20;;;15.30;99.90;;;;;;5115593;28;20039;-66
2023/04/19 09:07:25;;;;;;;3.90;3.15;;;15.30;99.90;;;;;;5115713;28;20026;-65
2023/04/19 09:10:07;;;;;;;4.53;2.90;;;15.40;99.90;;;;;;5115622;28;20032;-66
2023/04/19 09:12:34;;;;;;;4.45;3.00;;;15.60;99.90;;;;;;5115064;28;20265;-65
2023/04/19 09:15:05;;;;;;;4.13;2.90;;;15.70;99.90;;;;;;5115635;28;20047;-65
2023/04/19 09:17:31;;;;;;;3.38;3.08;;;15.90;99.90;;;;;;5115312;28;20027;-65
2023/04/19 09:19:57;;;;;;;3.95;2.78;;;16.10;99.90;;;;;;5115676;28;20445;-66
2023/04/19 09:22:24;;;;;;;3.47;3.00;;;16.20;99.90;;;;;;5115131;28;20019;-64
2023/04/19 09:24:51;;;;;;;7.68;3.40;;;16.30;99.90;;;;;;5115218;28;20024;-66
2023/04/19 09:27:28;;;;;;;5.68;3.38;;;16.50;99.90;;;;;;5114968;28;20444;-67
2023/04/19 09:29:58;;;;;;;5.30;3.28;;;16.60;99.90;;;;;;5115227;28;20438;-65
2023/04/19 09:32:25;;;;;;;6.22;3.70;;;16.70;99.90;;;;;;5115392;28;20031;-65
2023/04/19 09:34:59;;;;;;;4.95;3.30;;;16.80;99.90;;;;;;5114639;28;20063;-66
2023/04/19 09:37:26;;;;;;;5.03;3.00;;;16.90;99.90;;;;;;5096379;28;20028;-65
2023/04/19 09:39:52;;;;;;;5.50;3.28;;;17.00;99.90;;;;;;5114512;28;20080;-64
2023/04/19 09:42:19;;;;;;;6.03;3.17;;;17.20;99.90;;;;;;5114347;28;20024;-66
2023/04/19 09:45:00;;;;;;;6.90;2.88;;;17.50;99.90;;;;;;5114560;28;20088;-65
2023/04/19 09:47:28;;;;;;;4.53;2.88;;;17.70;99.90;;;;;;5114446;28;20115;-65
2023/04/19 09:50:10;;;;;;;4.53;2.90;;;17.80;99.90;;;;;;5114945;28;20333;-64
2023/04/19 09:52:36;;;;;;;3.15;2.75;;;18.00;99.90;;;;;;5114517;28;20107;-66
2023/04/19 09:55:07;;;;;;;6.10;2.75;;;18.10;99.90;;;;;;5113551;28;20500;-65
2023/04/19 09:57:33;;;;;;;7.75;2.80;;;18.10;99.90;;;;;;5114129;28;20081;-66
2023/04/19 10:00:00;;;;;;;3.63;2.47;;;18.20;99.90;;;;;;5114565;28;20028;-64
2023/04/19 10:02:31;;;;;;;3.63;2.42;;;18.20;99.90;;;;;;5114416;28;20036;-64
2023/04/19 10:04:58;;;;;;;4.05;2.50;;;18.40;99.90;;;;;;5113748;28;20558;-64
2023/04/19 10:07:25;;;;;;;4.40;2.42;;;18.40;99.90;;;;;;5113381;28;20059;-64
2023/04/19 10:09:55;;;;;;;6.40;2.40;;;18.40;99.90;;;;;;5112856;28;20028;-64
2023/04/19 10:12:25;;;;;;;3.50;2.28;;;18.50;99.90;;;;;;5114054;28;20067;-66
2023/04/19 10:14:53;;;;;;;3.38;2.38;;;18.60;99.90;;;;;;5113262;28;20056;-65
2023/04/19 10:17:20;;;;;;;6.82;2.90;;;18.50;99.90;;;;;;5113693;28;20023;-65
2023/04/19 10:19:46;;;;;;;5.97;2.92;;;18.40;99.90;;;;;;5113645;28;20028;-65
2023/04/19 10:22:13;;;;;;;9.00;7.43;;;18.50;99.90;;;;;;5113867;28;20016;-65
2023/04/19 10:24:39;;;;;;;6.07;5.43;;;18.70;99.90;;;;;;5113898;28;20023;-65
2023/04/19 10:27:11;;;;;;;4.22;3.30;;;18.90;99.90;;;;;;5114081;28;20676;-65
2023/04/19 10:29:59;;;;;;;3.53;2.80;;;18.90;99.90;;;;;;5114306;28;20149;-66
2023/04/19 10:32:45;;;;;;;2.75;2.45;;;18.90;99.90;;;;;;5113559;28;20047;-64
2023/04/19 10:35:43;;;;;;;4.90;2.83;;;18.90;99.90;;;;;;5113666;28;20123;-64
2023/04/19 10:38:15;;;;;;;4.22;3.80;;;19.10;99.90;;;;;;5101343;28;20060;-65
2023/04/19 10:40:50;;;;;;;4.43;2.80;;;19.00;99.90;;;;;;5113286;28;20043;-62
2023/04/19 10:43:17;;;;;;;4.18;2.95;;;19.00;99.90;;;;;;5113510;28;20081;-65
2023/04/19 10:45:43;;;;;;;3.13;2.40;;;18.90;99.90;;;;;;5113625;28;20036;-63
2023/04/19 10:48:32;;;;;;;2.53;2.33;;;18.90;99.90;;;;;;5113578;28;20029;-65
2023/04/19 10:51:13;;;;;;;6.32;5.70;;;18.90;99.90;;;;;;5112837;28;20024;-64
2023/04/19 10:53:48;;;;;;;3.20;2.90;;;18.90;99.90;;;;;;5112690;28;20024;-64
2023/04/19 10:56:16;;;;;;;3.78;3.33;;;19.00;99.90;;;;;;5113483;28;20088;-65
2023/04/19 10:59:00;;;;;;;3.67;2.90;;;19.10;99.90;;;;;;5113561;28;20016;-64
2023/04/19 11:01:38;;;;;;;3.17;2.90;;;19.50;99.90;;;;;;5113280;28;20038;-65
2023/04/19 11:04:04;;;;;;;3.42;2.45;;;19.70;99.90;;;;;;5113667;28;20496;-65
2023/04/19 11:06:31;;;;;;;3.10;2.80;;;19.70;99.90;;;;;;5113235;28;20019;-65
2023/04/19 11:08:57;;;;;;;2.95;2.50;;;19.90;99.90;;;;;;5112370;28;20047;-65
2023/04/19 11:11:25;;;;;;;2.70;2.50;;;20.00;99.90;;;;;;5112675;28;20075;-65
2023/04/19 11:13:56;;;;;;;3.65;2.45;;;20.00;99.90;;;;;;5112858;28;20035;-65
2023/04/19 11:16:22;;;;;;;2.75;2.20;;;20.10;99.90;;;;;;5112609;28;20039;-65
2023/04/19 11:18:48;;;;;;;7.00;2.63;;;20.30;99.90;;;;;;5112881;28;20076;-65
2023/04/19 11:21:17;;;;;;;2.70;2.20;;;20.50;99.90;;;;;;5112091;28;20031;-65
2023/04/19 11:23:43;;;;;;;2.85;2.30;;;20.60;99.90;;;;;;5112256;28;20484;-63
2023/04/19 11:26:11;;;;;;;4.43;2.20;;;20.60;99.90;;;;;;5113058;28;20035;-64
2023/04/19 11:28:38;;;;;;;3.08;2.38;;;20.70;99.90;;;;;;5094572;28;20027;-65
2023/04/19 11:31:05;;;;;;;3.78;2.20;;;20.70;99.90;;;;;;5112716;28;20055;-63
2023/04/19 11:33:34;;;;;;;6.90;2.30;;;20.70;99.90;;;;;;5112861;28;20046;-62
2023/04/19 11:36:00;;;;;;;2.67;2.47;;;21.00;99.90;;;;;;5112488;28;20038;-63
2023/04/19 11:38:29;;;;;;;3.55;2.70;;;21.00;99.90;;;;;;5111679;28;20473;-64
2023/04/19 11:41:03;;;;;;;3.42;2.60;;;21.00;99.90;;;;;;5112578;28;20053;-64
2023/04/19 11:43:35;;;;;;;3.78;2.60;;;21.20;99.90;;;;;;5112073;28;20027;-65
2023/04/19 11:46:05;;;;;;;7.40;2.70;;;21.30;99.90;;;;;;5112457;28;20511;-65
2023/04/19 11:48:31;;;;;;;4.60;2.20;;;21.20;99.90;;;;;;5112626;28;20031;-65
2023/04/19 11:50:58;;;;;;;3.50;2.40;;;21.00;99.90;;;;;;5111839;28;20054;-65
2023/04/19 11:53:28;;;;;;;2.38;2.17;;;21.20;99.90;;;;;;5112170;28;20115;-65
2023/04/19 11:56:07;;;;;;;4.55;2.40;;;21.50;99.90;;;;;;5112270;28;20084;-65
2023/04/19 11:58:49;;;;;;;2.85;2.20;;;21.50;99.90;;;;;;5112387;28;20024;-65
2023/04/19 12:01:20;;;;;;;4.70;2.40;;;21.60;99.90;;;;;;5112183;28;20035;-65
2023/04/19 12:03:48;;;;;;;5.20;2.72;;;21.60;99.90;;;;;;5112369;28;20024;-65
2023/04/19 12:06:21;;;;;;;4.60;2.50;;;21.30;99.90;;;;;;5111929;28;20024;-65
2023/04/19 12:08:48;;;;;;;3.70;2.40;;;21.20;99.90;;;;;;5111947;28;20080;-65
2023/04/19 12:11:17;;;;;;;3.75;2.53;;;21.50;99.90;;;;;;5112427;28;20044;-66
2023/04/19 12:13:43;;;;;;;2.40;2.20;;;22.00;99.90;;;;;;5112183;28;20020;-65
2023/04/19 12:16:10;;;;;;;2.67;2.30;;;22.10;99.90;;;;;;5111952;28;20502;-65
2023/04/19 12:18:50;;;;;;;3.38;2.30;;;22.00;99.90;;;;;;5111977;28;20015;-64
2023/04/19 12:21:29;;;;;;;3.75;2.40;;;21.80;99.90;;;;;;5111918;28;20051;-65
2023/04/19 12:23:56;;;;;;;5.50;2.55;;;21.80;99.90;;;;;;5111910;28;20030;-65
2023/04/19 12:26:23;;;;;;;4.80;2.63;;;22.10;99.90;;;;;;5111790;28;20020;-65
2023/04/19 12:28:49;;;;;;;4.75;2.35;;;22.10;99.90;;;;;;5112220;28;20020;-65
2023/04/19 12:31:15;;;;;;;3.95;2.13;;;22.20;99.90;;;;;;5111849;28;20503;-65
2023/04/19 12:33:41;;;;;;;3.65;2.13;;;22.60;99.90;;;;;;5110956;28;20418;-64
2023/04/19 12:36:06;;;;;;;2.95;2.25;;;22.80;99.90;;;;;;5111399;28;20028;-64
2023/04/19 12:38:32;;;;;;;2.95;2.30;;;23.10;99.90;;;;;;5111831;28;20020;-64
2023/04/19 12:40:58;;;;;;;5.57;2.22;;;23.30;99.90;;;;;;5112054;28;20494;-65
2023/04/19 12:43:23;;;;;;;2.53;2.03;;;23.30;99.90;;;;;;5111855;28;20023;-65
2023/04/19 12:45:52;;;;;;;3.88;2.30;;;;;;;;;;5111609;28;20043;-65
2023/04/19 12:48:18;;;;;;;4.53;2.20;;;23.50;99.90;;;;;;5111565;28;20027;-65
2023/04/19 12:50:44;;;;;;;3.38;2.20;;;23.60;99.90;;;;;;5111300;28;20035;-65